ADDS METAR Data INFO
IDs: Format: Raw Decoded Include TAF

Data at: 2008 UTC 19 Oct 2017

KHGR 191953Z 22005KT 10SM CLR 23/07 A3014 RMK AO2 SLP215 T02330072
KHGR 191853Z 22005KT 10SM CLR 22/07 A3016 RMK AO2 SLP220 T02220072
KHGR 191753Z 24007KT 10SM CLR 21/07 A3019 RMK AO2 SLP231 T02110072 10211 20094 58025
KHGR 191653Z VRB05KT 10SM CLR 20/07 A3022 RMK AO2 SLP241 T02000067
KHGR 191553Z 22004KT 10SM CLR 17/07 A3024 RMK AO2 SLP250 T01720067
KHGR 191453Z 18003KT 10SM CLR 14/07 A3026 RMK AO2 SLP257 T01440067 50004
KHGR 191353Z 18005KT 10SM CLR 13/07 A3027 RMK AO2 SLP260 T01280067
KHGR 191253Z 17005KT 10SM CLR 11/06 A3026 RMK AO2 SLP258 T01060061
KHGR 191153Z 00000KT 10SM CLR 09/06 A3025 RMK AO2 SLP253 T00940056 10122 20061 58001
KHGR 191053Z 00000KT 10SM CLR 08/05 A3025 RMK AO2 SLP254 T00830050
KHGR 190953Z AUTO 00000KT 10SM CLR 07/04 A3026 RMK AO2 SLP255 T00670044
KHGR 190853Z AUTO 16003KT 10SM CLR 09/06 A3025 RMK AO2 SLP252 T00940056 56003
KHGR 190753Z AUTO 17004KT 10SM CLR 10/05 A3025 RMK AO2 SLP252 T01000050
KHGR 190653Z AUTO 00000KT 10SM CLR 12/06 A3026 RMK AO2 SLP255 T01170056
KHGR 190553Z AUTO 17004KT 10SM CLR 11/06 A3026 RMK AO2 SLP256 T01060056 10167 20106 58009
KHGR 190453Z AUTO 17004KT 10SM CLR 12/06 A3027 RMK AO2 SLP260 T01170056 402110056
KHGR 190353Z AUTO 17005KT 10SM CLR 12/06 A3028 RMK AO2 SLP262 T01220061
KHGR 190253Z AUTO 15003KT 10SM CLR 14/06 A3029 RMK AO2 SLP266 T01390056 55000
KHGR 190153Z 14006KT 10SM CLR 16/06 A3028 RMK AO2 SLP265 T01560056
KHGR 190053Z 11005KT 10SM CLR 15/07 A3028 RMK AO2 SLP266 T01500067
KHGR 182353Z 13005KT 10SM CLR 17/06 A3029 RMK AO2 SLP268 T01670061 10211 20167 53002
KHGR 182253Z 17004KT 10SM CLR 17/06 A3028 RMK AO2 SLP264 T01720061
KHGR 182153Z 19007KT 10SM CLR 20/06 A3028 RMK AO2 SLP262 T02000056
KHGR 182053Z 19009KT 10SM CLR 21/05 A3028 RMK AO2 SLP264 T02110050 56020
KHGR 181953Z 17007KT 10SM CLR 21/05 A3030 RMK AO2 SLP269 T02060050
KHGR 181853Z 19005KT 10SM CLR 20/06 A3032 RMK AO2 SLP276 T02000061
KHGR 181753Z 23004KT 10SM CLR 19/06 A3034 RMK AO2 SLP284 T01890056 10189 20061 58017
KHGR 181653Z 24006KT 10SM CLR 17/05 A3037 RMK AO2 SLP295 T01720050
KHGR 181553Z 18004KT 10SM CLR 16/06 A3039 RMK AO2 SLP300 T01560061
KHGR 181453Z 18004KT 10SM CLR 13/06 A3039 RMK AO2 SLP303 T01330061 51006
KHGR 181353Z 15005KT 10SM CLR 12/06 A3039 RMK AO2 SLP303 T01170056
KHGR 181253Z 00000KT 10SM CLR 08/04 A3039 RMK AO2 SLP304 T00780044
KHGR 181153Z 11003KT 10SM CLR 06/03 A3037 RMK AO2 SLP298 T00560033 10083 20056 53017
KHGR 181053Z 16005KT 10SM CLR 06/03 A3035 RMK AO2 SLP291 T00610033
KHGR 180953Z AUTO 17004KT 10SM CLR 06/03 A3034 RMK AO2 SLP284 T00610033
KHGR 180853Z AUTO 14003KT 10SM CLR 07/03 A3032 RMK AO2 SLP278 T00720028 53001